To NAV CANADA Home Page Login to a new session Search on AWWS site Feedback and Comments Disclaimer Vers la page française équivalente Tips FAQ What's new on the site To the Forecasts and Observations / NOTAM section To "File a Flight Plan" website Publications and other links Update of the User's profile FIC Telephone Numbers My Weather Data Folder Route Weather Data Regional Weather Data Local Weather Data To the Forecasts and Observations / NOTAM section
Request Generated 03/29/2015 at 01:04:00 UTC . Weather information available at that time is displayed.

METAR/TAF

NORTH BATTLEFORD/SK    (show WxCam)

METAR CYQW 290100Z AUTO 30009KT 9SM CLR 06/03 A2975 RMK SLP096=
METAR CYQW 290000Z AUTO 30012G18KT 9SM BKN085 07/04 A2972 RMK SLP085=

TAF CYQW 282338Z 2900/2912 31015G25KT P6SM BKN015 TEMPO 2900/2902
SCT015
FM290200 31010KT P6SM FEW060
BECMG 2910/2912 24008KT
RMK FCST BASED ON AUTO OBS. NXT FCST BY 290600Z=
Your time UTC time
Weather data provided by Environment Canada and NAV CANADA